createdAt,value
2023-02-18T00:00:49.410Z,40.90
2023-02-18T00:01:49.429Z,41.40
2023-02-18T00:02:52.177Z,41.60
2023-02-18T00:03:49.400Z,40.20
2023-02-18T00:04:49.391Z,42.00
2023-02-18T00:05:49.399Z,41.20
2023-02-18T00:06:49.339Z,42.00
2023-02-18T00:07:49.390Z,41.10
2023-02-18T00:08:49.336Z,41.10
2023-02-18T00:09:49.327Z,41.90
2023-02-18T00:10:49.366Z,39.90
2023-02-18T00:11:49.291Z,41.30
2023-02-18T00:12:49.301Z,41.20
2023-02-18T00:13:49.267Z,41.70
2023-02-18T00:14:49.382Z,41.40
2023-02-18T00:15:49.282Z,40.80
2023-02-18T00:16:49.272Z,41.30
2023-02-18T00:17:49.265Z,40.70
2023-02-18T00:18:49.218Z,39.50
2023-02-18T00:19:49.214Z,41.30
2023-02-18T00:20:49.236Z,40.20
2023-02-18T00:21:49.188Z,39.50
2023-02-18T00:22:49.184Z,40.60
2023-02-18T00:23:49.158Z,41.00
2023-02-18T00:24:49.212Z,40.90
2023-02-18T00:25:49.144Z,40.60
2023-02-18T00:26:49.146Z,40.50
2023-02-18T00:27:49.115Z,40.90
2023-02-18T00:28:49.239Z,40.70
2023-02-18T00:29:49.146Z,41.00
2023-02-18T00:30:49.104Z,40.40
2023-02-18T00:31:49.196Z,41.20
2023-02-18T00:32:49.109Z,40.00
2023-02-18T00:33:49.097Z,41.30
2023-02-18T00:34:49.060Z,40.60
2023-02-18T00:35:49.057Z,41.00
2023-02-18T00:36:49.043Z,40.60
2023-02-18T00:37:49.015Z,40.60
2023-02-18T00:38:49.021Z,40.60
2023-02-18T00:39:49.010Z,39.20
2023-02-18T00:40:49.024Z,40.50
2023-02-18T00:41:48.995Z,40.30
2023-02-18T00:42:49.031Z,39.20
2023-02-18T00:43:49.028Z,40.70
2023-02-18T00:44:48.972Z,40.40
2023-02-18T00:45:48.947Z,39.10
2023-02-18T00:46:48.988Z,41.30
2023-02-18T00:47:48.922Z,40.90
2023-02-18T00:48:48.921Z,40.50
2023-02-18T00:49:48.890Z,41.00
2023-02-18T00:50:48.912Z,41.90
2023-02-18T00:51:48.898Z,40.50
2023-02-18T00:52:48.869Z,42.00
2023-02-18T00:53:48.861Z,41.20
2023-02-18T00:54:48.914Z,41.50
2023-02-18T00:55:48.834Z,42.70
2023-02-18T00:56:48.840Z,41.10
2023-02-18T00:57:48.850Z,41.60
2023-02-18T00:58:48.832Z,42.10
2023-02-18T00:59:48.801Z,42.50
2023-02-18T01:00:48.869Z,42.30
2023-02-18T01:01:48.834Z,41.30
2023-02-18T01:02:48.876Z,43.60
2023-02-18T01:03:48.748Z,43.80
2023-02-18T01:04:48.807Z,43.20
2023-02-18T01:05:48.736Z,42.90
2023-02-18T01:06:48.755Z,44.70
2023-02-18T01:07:48.738Z,44.80
2023-02-18T01:08:48.720Z,44.60
2023-02-18T01:09:48.722Z,46.40
2023-02-18T01:10:48.688Z,44.90
2023-02-18T01:11:48.705Z,46.80
2023-02-18T01:12:48.679Z,47.60
2023-02-18T01:13:48.680Z,45.20
2023-02-18T01:14:48.656Z,46.20
2023-02-18T01:15:48.674Z,45.30
2023-02-18T01:16:48.648Z,45.60
2023-02-18T01:17:48.620Z,47.20
2023-02-18T01:18:48.630Z,46.50
2023-02-18T01:19:48.606Z,47.20
2023-02-18T01:20:48.623Z,48.70
2023-02-18T01:21:48.587Z,48.60
2023-02-18T01:22:48.639Z,49.50
2023-02-18T01:23:48.542Z,47.60
2023-02-18T01:24:48.553Z,47.30
2023-02-18T01:25:48.569Z,47.10
2023-02-18T01:26:48.546Z,46.70
2023-02-18T01:27:48.517Z,47.00
2023-02-18T01:28:48.507Z,48.00
2023-02-18T01:29:48.499Z,46.10
2023-02-18T01:30:49.921Z,48.00
2023-02-18T01:31:48.569Z,48.20
2023-02-18T01:32:48.491Z,48.10
2023-02-18T01:33:48.486Z,47.80
2023-02-18T01:34:48.461Z,48.20
2023-02-18T01:35:48.423Z,47.80
2023-02-18T01:36:48.457Z,47.50
2023-02-18T01:37:48.432Z,48.60
2023-02-18T01:38:48.436Z,48.10
2023-02-18T01:39:48.407Z,48.40
2023-02-18T01:40:48.429Z,48.90
2023-02-18T01:41:48.377Z,49.00
2023-02-18T01:42:48.365Z,49.80
2023-02-18T01:43:48.418Z,49.70
2023-02-18T01:44:48.338Z,51.10
2023-02-18T01:45:48.323Z,50.20
2023-02-18T01:46:48.361Z,51.20
2023-02-18T01:47:48.371Z,49.80
2023-02-18T01:48:48.272Z,50.70
2023-02-18T01:49:48.298Z,51.30
2023-02-18T01:50:48.303Z,50.50
2023-02-18T01:51:48.271Z,51.40
2023-02-18T01:52:48.293Z,50.00
2023-02-18T01:53:48.234Z,51.30
2023-02-18T01:54:48.277Z,49.90
2023-02-18T01:55:48.231Z,51.20
2023-02-18T01:56:48.224Z,50.70
2023-02-18T01:57:48.217Z,52.20
2023-02-18T01:58:48.234Z,51.30
2023-02-18T01:59:48.236Z,52.10
2023-02-18T02:00:48.251Z,50.80
2023-02-18T02:01:48.151Z,50.00
2023-02-18T02:02:48.227Z,50.70
2023-02-18T02:03:48.182Z,50.40
2023-02-18T02:04:48.129Z,51.40
2023-02-18T02:05:48.152Z,51.20
2023-02-18T02:06:48.221Z,52.50
2023-02-18T02:07:48.162Z,51.10
2023-02-18T02:08:48.129Z,50.30
2023-02-18T02:09:48.098Z,50.70
2023-02-18T02:10:48.071Z,51.10
2023-02-18T02:11:48.051Z,50.80
2023-02-18T02:12:48.063Z,51.80
2023-02-18T02:13:48.045Z,51.30
2023-02-18T02:14:48.047Z,51.50
2023-02-18T02:15:48.028Z,52.60
2023-02-18T02:16:48.033Z,51.50
2023-02-18T02:17:48.037Z,54.40
2023-02-18T02:18:48.011Z,53.10
2023-02-18T02:19:47.991Z,54.40
2023-02-18T02:20:47.998Z,53.10
2023-02-18T02:21:47.982Z,54.20
2023-02-18T02:22:48.140Z,52.50
2023-02-18T02:23:47.981Z,49.70
2023-02-18T02:24:47.935Z,49.60
2023-02-18T02:25:47.929Z,50.20
2023-02-18T02:26:47.926Z,49.90
2023-02-18T02:27:47.884Z,51.20
2023-02-18T02:28:47.894Z,50.90
2023-02-18T02:29:47.876Z,50.90
2023-02-18T02:30:47.929Z,50.20
2023-02-18T02:31:47.911Z,50.10
2023-02-18T02:32:47.826Z,50.70
2023-02-18T02:33:47.958Z,49.40
2023-02-18T02:34:47.841Z,49.90
2023-02-18T02:35:47.841Z,53.00
2023-02-18T02:36:47.831Z,50.80
2023-02-18T02:37:47.805Z,52.30
2023-02-18T02:38:47.832Z,52.70
2023-02-18T02:39:47.812Z,52.50
2023-02-18T02:40:47.794Z,53.00
2023-02-18T02:41:47.746Z,52.90
2023-02-18T02:42:47.811Z,52.50
2023-02-18T02:43:47.726Z,52.00
2023-02-18T02:44:47.745Z,51.50
2023-02-18T02:45:47.788Z,53.10
2023-02-18T02:46:47.700Z,54.60
2023-02-18T02:47:47.693Z,52.80
2023-02-18T02:48:47.707Z,53.00
2023-02-18T02:49:47.741Z,52.50
2023-02-18T02:50:47.674Z,52.90
2023-02-18T02:51:47.663Z,53.70
2023-02-18T02:52:47.640Z,52.90
2023-02-18T02:53:47.646Z,53.40
2023-02-18T02:54:47.667Z,51.90
2023-02-18T02:55:47.644Z,51.70
2023-02-18T02:56:47.607Z,53.00
2023-02-18T02:57:47.595Z,52.40
2023-02-18T02:58:47.616Z,54.70
2023-02-18T02:59:47.620Z,52.80
2023-02-18T03:00:47.594Z,52.50
2023-02-18T03:01:47.559Z,51.40
2023-02-18T03:02:47.614Z,53.30
2023-02-18T03:03:47.538Z,49.00
2023-02-18T03:04:47.514Z,51.10
2023-02-18T03:05:47.540Z,50.70
2023-02-18T03:06:47.490Z,49.20
2023-02-18T03:07:47.559Z,49.10
2023-02-18T03:08:47.533Z,47.40
2023-02-18T03:09:47.499Z,48.00
2023-02-18T03:10:47.467Z,45.90
2023-02-18T03:11:47.543Z,45.10
2023-02-18T03:12:47.456Z,43.90
2023-02-18T03:13:47.488Z,45.30
2023-02-18T03:14:47.439Z,44.30
2023-02-18T03:15:47.440Z,44.10
2023-02-18T03:16:47.489Z,44.80
2023-02-18T03:17:47.393Z,45.30
2023-02-18T03:18:47.369Z,43.50
2023-02-18T03:19:47.393Z,43.00
2023-02-18T03:20:47.395Z,40.80
2023-02-18T03:21:47.403Z,40.80
2023-02-18T03:22:47.343Z,39.40
2023-02-18T03:23:47.364Z,39.30
2023-02-18T03:24:47.337Z,37.00
2023-02-18T03:25:47.312Z,37.00
2023-02-18T03:26:47.313Z,36.50
2023-02-18T03:27:47.288Z,36.70
2023-02-18T03:28:47.287Z,34.50
2023-02-18T03:29:47.268Z,33.00
2023-02-18T03:30:47.264Z,33.70
2023-02-18T03:31:47.385Z,33.40
2023-02-18T03:32:47.258Z,32.90
2023-02-18T03:33:47.273Z,34.20
2023-02-18T03:34:47.211Z,34.30
2023-02-18T03:35:47.218Z,32.60
2023-02-18T03:36:47.187Z,30.90
2023-02-18T03:37:47.215Z,32.00
2023-02-18T03:38:47.265Z,31.10
2023-02-18T03:39:47.174Z,29.20
2023-02-18T03:40:47.163Z,30.00
2023-02-18T03:41:47.194Z,30.20
2023-02-18T03:42:47.147Z,30.00
2023-02-18T03:43:47.147Z,28.90
2023-02-18T03:44:47.114Z,31.60
2023-02-18T03:45:47.174Z,30.00
2023-02-18T03:46:47.096Z,28.70
2023-02-18T03:47:47.103Z,29.40
2023-02-18T03:48:47.102Z,29.50
2023-02-18T03:49:47.092Z,29.60
2023-02-18T03:50:47.048Z,28.00
2023-02-18T03:51:47.045Z,29.10
2023-02-18T03:52:47.055Z,27.60
2023-02-18T03:53:47.045Z,28.20
2023-02-18T03:54:47.039Z,27.40
2023-02-18T03:55:47.003Z,27.50
2023-02-18T03:56:47.015Z,27.70
2023-02-18T03:57:46.988Z,28.30
2023-02-18T03:58:47.000Z,27.40
2023-02-18T03:59:47.051Z,27.20
2023-02-18T04:00:46.951Z,26.20
2023-02-18T04:01:46.974Z,25.70
2023-02-18T04:02:46.945Z,26.70
2023-02-18T04:03:46.944Z,26.30
2023-02-18T04:04:46.930Z,25.90
2023-02-18T04:05:46.891Z,24.40
2023-02-18T04:06:46.905Z,23.60
2023-02-18T04:07:46.916Z,24.80
2023-02-18T04:08:46.882Z,23.70
2023-02-18T04:09:46.945Z,24.00
2023-02-18T04:10:46.862Z,24.30
2023-02-18T04:11:46.864Z,23.60
2023-02-18T04:12:46.853Z,22.40
2023-02-18T04:13:46.816Z,22.30
2023-02-18T04:14:46.807Z,23.00
2023-02-18T04:15:46.798Z,21.80
2023-02-18T04:16:46.833Z,21.00
2023-02-18T04:17:46.833Z,21.20
2023-02-18T04:18:46.781Z,20.60
2023-02-18T04:19:46.755Z,20.90
2023-02-18T04:20:46.737Z,20.40
2023-02-18T04:21:46.733Z,21.20
2023-02-18T04:22:46.739Z,20.50
2023-02-18T04:23:46.718Z,21.30
2023-02-18T04:24:46.719Z,21.00
2023-02-18T04:25:46.704Z,21.70
2023-02-18T04:26:46.689Z,20.50
2023-02-18T04:27:46.706Z,21.20
2023-02-18T04:28:46.638Z,20.70
2023-02-18T04:29:46.652Z,20.20
2023-02-18T04:30:46.780Z,19.90
2023-02-18T04:31:46.755Z,20.10
2023-02-18T04:32:46.643Z,20.10
2023-02-18T04:33:46.630Z,20.20
2023-02-18T04:34:46.670Z,20.80
2023-02-18T04:35:46.600Z,21.70
2023-02-18T04:36:46.599Z,22.40
2023-02-18T04:37:46.570Z,22.10
2023-02-18T04:38:46.594Z,21.50
2023-02-18T04:39:46.571Z,22.00
2023-02-18T04:40:46.567Z,23.00
2023-02-18T04:41:46.534Z,22.80
2023-02-18T04:42:46.516Z,22.90
2023-02-18T04:43:46.531Z,24.00
2023-02-18T04:44:47.609Z,23.60
2023-02-18T04:45:46.519Z,24.50
2023-02-18T04:46:46.490Z,23.40
2023-02-18T04:47:46.499Z,23.40
2023-02-18T04:48:46.470Z,22.20
2023-02-18T04:49:46.455Z,23.00
2023-02-18T04:50:46.439Z,21.70
2023-02-18T04:51:46.429Z,21.70
2023-02-18T04:52:46.412Z,21.60
2023-02-18T04:53:46.450Z,20.10
2023-02-18T04:54:46.390Z,20.20
2023-02-18T04:55:46.391Z,20.00
2023-02-18T04:56:46.380Z,20.60
2023-02-18T04:57:46.388Z,20.00
2023-02-18T04:58:46.354Z,19.90
2023-02-18T04:59:46.350Z,20.10
2023-02-18T05:00:46.366Z,19.40
2023-02-18T05:01:46.340Z,20.30
2023-02-18T05:02:46.315Z,19.00
2023-02-18T05:03:46.404Z,18.70
2023-02-18T05:04:46.318Z,19.00
2023-02-18T05:05:46.318Z,18.50
2023-02-18T05:06:46.299Z,17.40
2023-02-18T05:07:46.319Z,18.30
2023-02-18T05:08:46.259Z,17.40
2023-02-18T05:09:46.301Z,17.50
2023-02-18T05:10:46.288Z,17.10
2023-02-18T05:11:46.268Z,16.80
2023-02-18T05:12:46.233Z,16.40
2023-02-18T05:13:46.240Z,16.40
2023-02-18T05:14:46.206Z,16.70
2023-02-18T05:15:46.201Z,16.00
2023-02-18T05:16:46.238Z,16.50
2023-02-18T05:17:46.176Z,16.30
2023-02-18T05:18:46.201Z,15.90
2023-02-18T05:19:46.144Z,14.70
2023-02-18T05:20:46.132Z,14.80
2023-02-18T05:21:46.147Z,14.40
2023-02-18T05:22:46.137Z,14.80
2023-02-18T05:23:46.124Z,13.60
2023-02-18T05:24:46.090Z,12.90
2023-02-18T05:25:46.119Z,11.80
2023-02-18T05:26:46.088Z,12.20
2023-02-18T05:27:46.070Z,13.00
2023-02-18T05:28:46.052Z,12.50
2023-02-18T05:29:46.083Z,11.80
2023-02-18T05:30:46.078Z,11.70
2023-02-18T05:31:46.167Z,11.80
2023-02-18T05:32:46.003Z,11.00
2023-02-18T05:33:46.045Z,11.10
2023-02-18T05:34:46.018Z,10.50
2023-02-18T05:35:46.016Z,9.50
2023-02-18T05:36:45.977Z,9.70
2023-02-18T05:37:45.962Z,9.60
2023-02-18T05:38:45.945Z,8.90
2023-02-18T05:39:45.976Z,8.90
2023-02-18T05:40:45.934Z,9.90
2023-02-18T05:41:45.918Z,9.20
2023-02-18T05:42:45.915Z,8.20
2023-02-18T05:43:45.923Z,7.60
2023-02-18T05:44:45.903Z,7.50
2023-02-18T05:45:45.913Z,7.30
2023-02-18T05:46:45.952Z,7.00
2023-02-18T05:47:45.860Z,6.80
2023-02-18T05:48:45.848Z,6.50
2023-02-18T05:49:45.833Z,6.70
2023-02-18T05:50:45.831Z,6.30
2023-02-18T05:51:45.852Z,6.00
2023-02-18T05:52:45.819Z,5.80
2023-02-18T05:53:45.823Z,6.10
2023-02-18T05:54:45.789Z,6.00
2023-02-18T05:55:45.802Z,5.70
2023-02-18T05:56:45.801Z,5.60
2023-02-18T05:57:45.782Z,5.50
2023-02-18T05:58:45.746Z,5.30
2023-02-18T05:59:45.745Z,5.00
2023-02-18T06:00:45.720Z,5.40
2023-02-18T06:01:45.711Z,5.00
2023-02-18T06:02:45.749Z,5.20
2023-02-18T06:03:45.698Z,5.60
2023-02-18T06:04:45.703Z,5.40
2023-02-18T06:05:45.713Z,4.90
2023-02-18T06:06:45.700Z,5.20
2023-02-18T06:07:45.737Z,5.00
2023-02-18T06:08:45.668Z,5.00
2023-02-18T06:09:45.653Z,4.90
2023-02-18T06:10:45.619Z,5.00
2023-02-18T06:11:45.614Z,4.50
2023-02-18T06:12:45.596Z,4.40
2023-02-18T06:13:45.604Z,4.50
2023-02-18T06:14:45.588Z,4.50
2023-02-18T06:15:45.657Z,4.30
2023-02-18T06:16:45.557Z,4.40
2023-02-18T06:17:45.559Z,4.30
2023-02-18T06:18:45.524Z,4.50
2023-02-18T06:19:45.532Z,4.00
2023-02-18T06:20:45.533Z,4.30
2023-02-18T06:21:45.513Z,4.50
2023-02-18T06:22:45.471Z,3.90
2023-02-18T06:23:45.441Z,4.10
2023-02-18T06:24:45.428Z,3.90
2023-02-18T06:25:45.453Z,3.80
2023-02-18T06:26:45.447Z,4.20
2023-02-18T06:27:45.410Z,4.00
2023-02-18T06:28:45.415Z,4.20
2023-02-18T06:29:45.362Z,4.20
2023-02-18T06:30:45.370Z,3.60
2023-02-18T06:31:45.511Z,3.80
2023-02-18T06:32:45.378Z,4.00
2023-02-18T06:33:45.342Z,4.20
2023-02-18T06:34:45.359Z,3.90
2023-02-18T06:35:45.325Z,3.90
2023-02-18T06:36:45.315Z,3.90
2023-02-18T06:37:45.308Z,4.00
2023-02-18T06:38:45.320Z,3.80
2023-02-18T06:39:45.269Z,4.20
2023-02-18T06:40:45.263Z,4.20
2023-02-18T06:41:45.265Z,4.10
2023-02-18T06:42:45.274Z,3.90
2023-02-18T06:43:45.279Z,4.40
2023-02-18T06:44:45.248Z,4.00
2023-02-18T06:45:45.200Z,4.10
2023-02-18T06:46:45.237Z,4.60
2023-02-18T06:47:45.188Z,4.20
2023-02-18T06:48:45.195Z,3.70
2023-02-18T06:49:45.182Z,4.00
2023-02-18T06:50:45.197Z,4.00
2023-02-18T06:51:45.140Z,3.80
2023-02-18T06:52:45.160Z,3.80
2023-02-18T06:53:45.119Z,4.00
2023-02-18T06:54:45.129Z,3.60
2023-02-18T06:55:45.128Z,3.60
2023-02-18T06:56:45.105Z,3.70
2023-02-18T06:57:45.083Z,2.90
2023-02-18T06:58:45.166Z,3.10
2023-02-18T06:59:45.060Z,3.50
2023-02-18T07:00:45.118Z,3.70
2023-02-18T07:01:45.061Z,3.70
2023-02-18T07:02:45.047Z,3.50
2023-02-18T07:03:45.084Z,3.40
2023-02-18T07:04:45.044Z,3.60
2023-02-18T07:05:45.023Z,3.60
2023-02-18T07:06:45.037Z,3.20
2023-02-18T07:07:44.996Z,3.30
2023-02-18T07:08:44.976Z,3.20
2023-02-18T07:09:44.963Z,3.30
2023-02-18T07:10:44.981Z,3.10
2023-02-18T07:11:44.964Z,3.40
2023-02-18T07:12:44.945Z,3.50
2023-02-18T07:13:44.941Z,3.10
2023-02-18T07:14:45.016Z,3.30
2023-02-18T07:15:44.927Z,3.10
2023-02-18T07:16:44.971Z,3.50
2023-02-18T07:17:44.904Z,3.40
2023-02-18T07:18:44.882Z,3.20
2023-02-18T07:19:44.879Z,3.10
2023-02-18T07:20:44.904Z,3.10
2023-02-18T07:21:44.842Z,3.30
2023-02-18T07:22:44.919Z,3.00
2023-02-18T07:23:44.840Z,3.20
2023-02-18T07:24:44.812Z,3.10
2023-02-18T07:25:44.803Z,3.00
2023-02-18T07:26:44.780Z,3.10
2023-02-18T07:27:44.808Z,3.20
2023-02-18T07:28:44.780Z,3.30
2023-02-18T07:29:44.789Z,3.40
2023-02-18T07:30:44.751Z,3.40
2023-02-18T07:31:44.847Z,3.30
2023-02-18T07:32:44.732Z,3.60
2023-02-18T07:33:44.733Z,3.40
2023-02-18T07:34:44.723Z,3.40
2023-02-18T07:35:44.688Z,3.90
2023-02-18T07:36:44.697Z,3.60
2023-02-18T07:37:44.689Z,3.60
2023-02-18T07:38:44.668Z,4.30
2023-02-18T07:39:44.669Z,3.90
2023-02-18T07:40:44.654Z,3.70
2023-02-18T07:41:44.663Z,3.30
2023-02-18T07:42:44.635Z,3.90
2023-02-18T07:43:44.635Z,4.00
2023-02-18T07:44:44.620Z,3.50
2023-02-18T07:45:44.620Z,3.50
2023-02-18T07:46:46.594Z,3.60
2023-02-18T07:47:44.586Z,3.40
2023-02-18T07:48:44.575Z,3.60
2023-02-18T07:49:44.550Z,3.40
2023-02-18T07:50:44.573Z,3.70
2023-02-18T07:51:44.544Z,3.80
2023-02-18T07:52:44.563Z,3.70
2023-02-18T07:53:44.517Z,3.40
2023-02-18T07:54:44.506Z,3.90
2023-02-18T07:55:44.507Z,3.60
2023-02-18T07:56:44.521Z,3.70
2023-02-18T07:57:44.524Z,3.50
2023-02-18T07:58:44.474Z,4.00
2023-02-18T07:59:44.483Z,4.00
2023-02-18T08:00:44.472Z,4.20
2023-02-18T08:01:45.175Z,3.90
2023-02-18T08:02:44.424Z,4.30
2023-02-18T08:03:44.413Z,4.10
2023-02-18T08:04:44.431Z,3.90
2023-02-18T08:05:44.391Z,4.00
2023-02-18T08:06:44.383Z,4.00
2023-02-18T08:07:44.410Z,4.00
2023-02-18T08:08:44.378Z,3.90
2023-02-18T08:09:44.369Z,4.10
2023-02-18T08:10:44.357Z,4.60
2023-02-18T08:11:44.401Z,4.00
2023-02-18T08:12:44.325Z,4.10
2023-02-18T08:13:46.906Z,4.10
2023-02-18T08:14:44.322Z,4.20
2023-02-18T08:15:44.288Z,4.10
2023-02-18T08:16:44.300Z,4.40
2023-02-18T08:17:44.294Z,4.20
2023-02-18T08:18:44.301Z,4.30
2023-02-18T08:19:44.267Z,4.30
2023-02-18T08:20:44.279Z,4.10
2023-02-18T08:21:44.232Z,4.40
2023-02-18T08:22:44.256Z,4.00
2023-02-18T08:23:44.202Z,4.30
2023-02-18T08:24:44.209Z,4.20
2023-02-18T08:25:44.199Z,4.50
2023-02-18T08:26:59.429Z,4.20
2023-02-18T08:27:44.188Z,4.30
2023-02-18T08:28:44.183Z,4.40
2023-02-18T08:29:44.170Z,4.80
2023-02-18T08:30:44.402Z,4.50
2023-02-18T08:31:44.922Z,4.60
2023-02-18T08:32:44.136Z,4.90
2023-02-18T08:33:44.115Z,5.00
2023-02-18T08:34:44.173Z,5.40
2023-02-18T08:35:44.097Z,5.50
2023-02-18T08:36:44.112Z,5.40
2023-02-18T08:37:53.169Z,5.50
2023-02-18T08:38:44.173Z,5.50
2023-02-18T08:39:44.138Z,5.60
2023-02-18T08:40:44.110Z,5.70
2023-02-18T08:41:44.049Z,8.00
2023-02-18T08:42:44.041Z,32.70
2023-02-18T08:43:44.080Z,27.30
2023-02-18T08:44:44.036Z,38.40
2023-02-18T08:45:44.033Z,18.80
2023-02-18T08:46:44.024Z,6.40
2023-02-18T08:48:16.594Z,11.90
2023-02-18T08:48:43.984Z,9.30
2023-02-18T08:49:44.016Z,4.70
2023-02-18T08:50:44.109Z,3.70
2023-02-18T08:51:43.941Z,3.50
2023-02-18T08:52:43.943Z,3.70
2023-02-18T08:53:43.979Z,3.30
2023-02-18T08:54:43.940Z,3.20
2023-02-18T08:55:43.910Z,3.10
2023-02-18T08:56:43.925Z,3.20
2023-02-18T08:57:43.925Z,3.30
2023-02-18T08:58:43.857Z,3.30
2023-02-18T08:59:43.847Z,3.60
2023-02-18T09:00:43.875Z,3.70
2023-02-18T09:01:43.936Z,3.80
2023-02-18T09:02:43.834Z,4.50
2023-02-18T09:03:43.960Z,4.60
2023-02-18T09:04:43.806Z,4.50
2023-02-18T09:05:43.827Z,5.00
2023-02-18T09:06:43.847Z,6.60
2023-02-18T09:07:43.843Z,5.60
2023-02-18T09:08:43.797Z,5.10
2023-02-18T09:09:43.785Z,5.60
2023-02-18T09:10:46.209Z,5.20
2023-02-18T09:11:43.754Z,5.60
2023-02-18T09:12:43.740Z,5.20
2023-02-18T09:13:43.780Z,5.40
2023-02-18T09:14:43.764Z,5.60
2023-02-18T09:15:43.692Z,6.00
2023-02-18T09:16:43.811Z,5.50
2023-02-18T09:17:43.669Z,5.60
2023-02-18T09:18:43.654Z,5.80
2023-02-18T09:19:43.658Z,5.90
2023-02-18T09:20:43.650Z,6.10
2023-02-18T09:21:43.667Z,6.10
2023-02-18T09:22:43.626Z,6.30
2023-02-18T09:23:43.598Z,6.40
2023-02-18T09:24:43.606Z,6.70
2023-02-18T09:25:43.608Z,6.50
2023-02-18T09:26:43.574Z,6.70
2023-02-18T09:27:43.568Z,6.40
2023-02-18T09:28:43.588Z,6.90
2023-02-18T09:29:43.571Z,7.10
2023-02-18T09:30:43.617Z,6.90
2023-02-18T09:31:43.623Z,7.10
2023-02-18T09:32:43.517Z,7.30
2023-02-18T09:33:45.651Z,7.30
2023-02-18T09:34:43.495Z,7.30
2023-02-18T09:35:43.471Z,7.50
2023-02-18T09:36:43.512Z,7.60
2023-02-18T09:37:43.490Z,7.60
2023-02-18T09:38:43.477Z,7.80
2023-02-18T09:39:43.435Z,7.80
2023-02-18T09:40:43.422Z,7.80
2023-02-18T09:41:43.425Z,7.50
2023-02-18T09:42:43.409Z,8.20
2023-02-18T09:43:43.412Z,7.70
2023-02-18T09:44:43.374Z,7.30
2023-02-18T09:45:43.369Z,7.40
2023-02-18T09:46:43.398Z,7.70
2023-02-18T09:47:43.340Z,6.70
2023-02-18T09:48:43.351Z,6.80
2023-02-18T09:49:43.365Z,7.00
2023-02-18T09:50:43.336Z,7.20
2023-02-18T09:51:43.358Z,7.20
2023-02-18T09:52:43.336Z,7.80
2023-02-18T09:53:43.337Z,7.50
2023-02-18T09:54:43.299Z,7.70
2023-02-18T09:55:43.261Z,7.50
2023-02-18T09:56:43.560Z,7.10
2023-02-18T09:57:43.261Z,7.70
2023-02-18T09:58:43.396Z,7.60
2023-02-18T09:59:43.273Z,8.00
2023-02-18T10:00:43.222Z,6.50
2023-02-18T10:01:43.240Z,6.80
2023-02-18T10:02:43.214Z,7.00
2023-02-18T10:03:43.193Z,7.80
2023-02-18T10:04:43.189Z,7.90
2023-02-18T10:05:43.219Z,7.70
2023-02-18T10:06:43.200Z,7.70
2023-02-18T10:07:43.133Z,8.10
2023-02-18T10:08:43.174Z,7.50
2023-02-18T10:09:43.135Z,7.90
2023-02-18T10:10:43.153Z,7.90
2023-02-18T10:11:43.136Z,7.80
2023-02-18T10:12:43.110Z,8.10
2023-02-18T10:13:43.092Z,8.20
2023-02-18T10:14:43.110Z,8.40
2023-02-18T10:15:43.221Z,8.40
2023-02-18T10:16:43.107Z,8.80
2023-02-18T10:17:43.078Z,8.40
2023-02-18T10:18:43.035Z,8.80
2023-02-18T10:19:43.016Z,9.10
2023-02-18T10:20:43.052Z,9.10
2023-02-18T10:21:43.036Z,9.90
2023-02-18T10:22:43.003Z,8.80
2023-02-18T10:23:42.993Z,8.40
2023-02-18T10:24:42.980Z,8.50
2023-02-18T10:25:42.973Z,8.80
2023-02-18T10:26:42.962Z,8.50
2023-02-18T10:27:42.956Z,9.30
2023-02-18T10:28:42.971Z,8.70
2023-02-18T10:29:42.930Z,8.80
2023-02-18T10:30:42.941Z,8.20
2023-02-18T10:31:42.994Z,8.90
2023-02-18T10:32:42.934Z,8.50
2023-02-18T10:33:42.894Z,8.10
2023-02-18T10:34:42.925Z,8.30
2023-02-18T10:35:42.857Z,8.50
2023-02-18T10:36:42.861Z,8.60
2023-02-18T10:37:42.854Z,8.50
2023-02-18T10:38:42.892Z,9.40
2023-02-18T10:39:42.824Z,9.40
2023-02-18T10:40:42.827Z,8.50
2023-02-18T10:41:42.814Z,8.50
2023-02-18T10:42:42.818Z,8.30
2023-02-18T10:43:42.796Z,9.20
2023-02-18T10:44:42.786Z,9.50
2023-02-18T10:45:42.786Z,8.50
2023-02-18T10:46:42.802Z,9.00
2023-02-18T10:47:42.748Z,9.70
2023-02-18T10:48:42.770Z,9.10
2023-02-18T10:49:42.745Z,9.20
2023-02-18T10:50:42.717Z,9.20
2023-02-18T10:51:42.736Z,8.00
2023-02-18T10:52:42.686Z,7.40
2023-02-18T10:53:42.687Z,8.60
2023-02-18T10:54:42.661Z,7.50
2023-02-18T10:55:42.690Z,7.20
2023-02-18T10:56:42.658Z,7.20
2023-02-18T10:57:42.642Z,7.30
2023-02-18T10:58:42.633Z,7.70
2023-02-18T10:59:42.624Z,6.90
2023-02-18T11:00:42.611Z,6.60
2023-02-18T11:01:42.678Z,6.90
2023-02-18T11:02:42.595Z,7.50
2023-02-18T11:03:42.604Z,7.50
2023-02-18T11:04:42.632Z,6.90
2023-02-18T11:05:42.614Z,6.90
2023-02-18T11:06:42.532Z,6.70
2023-02-18T11:07:42.540Z,7.10
2023-02-18T11:08:42.540Z,7.10
2023-02-18T11:09:45.014Z,7.20
2023-02-18T11:10:42.532Z,7.40
2023-02-18T11:11:42.796Z,7.20
2023-02-18T11:12:42.479Z,7.00
2023-02-18T11:13:42.499Z,7.10
2023-02-18T11:14:42.509Z,6.90
2023-02-18T11:15:42.546Z,6.80
2023-02-18T11:16:42.487Z,6.80
2023-02-18T11:17:42.478Z,6.70
2023-02-18T11:18:42.437Z,6.60
2023-02-18T11:19:42.446Z,7.30
2023-02-18T11:20:42.427Z,7.50
2023-02-18T11:21:42.395Z,7.20
2023-02-18T11:22:42.392Z,7.40
2023-02-18T11:23:42.387Z,7.00
2023-02-18T11:24:42.369Z,7.20
2023-02-18T11:25:42.371Z,7.40
2023-02-18T11:26:42.331Z,6.30
2023-02-18T11:27:42.343Z,6.90
2023-02-18T11:28:42.323Z,6.50
2023-02-18T11:29:42.315Z,6.10
2023-02-18T11:30:42.305Z,6.20
2023-02-18T11:31:42.398Z,6.50
2023-02-18T11:32:42.339Z,7.30
2023-02-18T11:33:43.071Z,6.90
2023-02-18T11:34:42.257Z,7.00
2023-02-18T11:35:42.240Z,7.30
2023-02-18T11:36:42.240Z,7.30
2023-02-18T11:37:42.272Z,7.20
2023-02-18T11:38:42.223Z,7.40
2023-02-18T11:39:42.198Z,7.10
2023-02-18T11:40:42.180Z,6.90
2023-02-18T11:41:42.214Z,7.10
2023-02-18T11:42:42.175Z,7.10
2023-02-18T11:43:42.192Z,7.70
2023-02-18T11:44:42.183Z,8.00
2023-02-18T11:45:42.143Z,6.90
2023-02-18T11:46:42.271Z,7.20
2023-02-18T11:47:42.208Z,6.50
2023-02-18T11:48:42.114Z,6.90
2023-02-18T11:49:42.115Z,6.70
2023-02-18T11:50:42.096Z,6.80
2023-02-18T11:51:42.120Z,6.40
2023-02-18T11:52:42.094Z,7.00
2023-02-18T11:53:42.061Z,6.20
2023-02-18T11:54:42.047Z,6.50
2023-02-18T11:55:42.071Z,6.30
2023-02-18T11:56:42.017Z,5.90
2023-02-18T11:57:42.050Z,5.90
2023-02-18T11:58:42.000Z,5.90
2023-02-18T11:59:42.049Z,5.80
2023-02-18T12:00:41.989Z,5.80
2023-02-18T12:01:42.008Z,5.90
2023-02-18T12:02:41.989Z,7.10
2023-02-18T12:03:41.974Z,6.50
2023-02-18T12:04:41.963Z,6.40
2023-02-18T12:05:41.937Z,6.20
2023-02-18T12:06:41.947Z,6.20
2023-02-18T12:07:41.944Z,6.70
2023-02-18T12:08:41.938Z,6.50
2023-02-18T12:09:41.903Z,6.60
2023-02-18T12:10:41.900Z,7.00
2023-02-18T12:11:41.887Z,6.80
2023-02-18T12:12:41.888Z,6.50
2023-02-18T12:13:41.921Z,6.60
2023-02-18T12:14:41.924Z,6.20
2023-02-18T12:15:41.858Z,6.00
2023-02-18T12:16:41.894Z,7.20
2023-02-18T12:17:41.854Z,7.30
2023-02-18T12:18:42.872Z,6.60
2023-02-18T12:19:41.821Z,6.40
2023-02-18T12:20:41.853Z,6.60
2023-02-18T12:21:41.774Z,6.20
2023-02-18T12:22:41.780Z,6.90
2023-02-18T12:23:41.767Z,6.70
2023-02-18T12:24:41.838Z,7.80
2023-02-18T12:25:41.770Z,7.50
2023-02-18T12:26:41.735Z,7.50
2023-02-18T12:27:41.738Z,7.90
2023-02-18T12:28:41.694Z,7.90
2023-02-18T12:29:41.688Z,8.30
2023-02-18T12:30:41.699Z,7.30
2023-02-18T12:31:41.759Z,8.60
2023-02-18T12:32:41.656Z,8.50
2023-02-18T12:33:41.692Z,10.00
2023-02-18T12:34:41.643Z,9.00
2023-02-18T12:35:41.628Z,10.30
2023-02-18T12:36:41.641Z,8.00
2023-02-18T12:37:41.658Z,9.60
2023-02-18T12:38:41.590Z,14.00
2023-02-18T12:39:41.611Z,10.70
2023-02-18T12:40:41.576Z,12.80
2023-02-18T12:41:41.576Z,8.70
2023-02-18T12:42:41.582Z,7.80
2023-02-18T12:43:41.563Z,7.40
2023-02-18T12:44:44.130Z,8.80
2023-02-18T12:45:41.560Z,13.10
2023-02-18T12:46:41.533Z,7.80
2023-02-18T12:47:41.563Z,7.30
2023-02-18T12:48:41.502Z,7.10
2023-02-18T12:49:41.499Z,7.70
2023-02-18T12:50:41.497Z,7.30
2023-02-18T12:51:41.489Z,7.30
2023-02-18T12:52:41.638Z,8.00
2023-02-18T12:53:41.453Z,7.80
2023-02-18T12:54:41.421Z,7.30
2023-02-18T12:55:41.417Z,7.60
2023-02-18T12:56:41.408Z,7.40
2023-02-18T12:57:41.410Z,7.30
2023-02-18T12:58:41.375Z,7.50
2023-02-18T12:59:41.367Z,7.60
2023-02-18T13:00:41.353Z,8.10
2023-02-18T13:01:41.370Z,7.90
2023-02-18T13:02:41.365Z,7.30
2023-02-18T13:03:41.376Z,7.50
2023-02-18T13:04:41.354Z,8.70
2023-02-18T13:05:41.317Z,7.30
2023-02-18T13:06:41.324Z,7.40